sensor_id;sensor_type;location;lat;lon;timestamp;temperature;humidity
17994;DHT22;9122;48.406;9.984;2023-07-13T00:02:37;20.70;99.10
17994;DHT22;9122;48.406;9.984;2023-07-13T00:05:23;20.70;99.10
17994;DHT22;9122;48.406;9.984;2023-07-13T00:08:08;20.70;99.20
17994;DHT22;9122;48.406;9.984;2023-07-13T00:10:53;20.70;99.20
17994;DHT22;9122;48.406;9.984;2023-07-13T00:13:41;20.70;99.20
17994;DHT22;9122;48.406;9.984;2023-07-13T00:16:26;20.70;99.20
17994;DHT22;9122;48.406;9.984;2023-07-13T00:19:12;20.70;99.30
17994;DHT22;9122;48.406;9.984;2023-07-13T00:21:56;20.70;99.40
17994;DHT22;9122;48.406;9.984;2023-07-13T00:24:40;20.70;99.50
17994;DHT22;9122;48.406;9.984;2023-07-13T00:27:26;20.60;99.50
17994;DHT22;9122;48.406;9.984;2023-07-13T00:30:11;20.60;99.60
17994;DHT22;9122;48.406;9.984;2023-07-13T00:32:55;20.60;99.50
17994;DHT22;9122;48.406;9.984;2023-07-13T00:35:40;20.60;99.50
17994;DHT22;9122;48.406;9.984;2023-07-13T00:38:27;20.60;99.30
17994;DHT22;9122;48.406;9.984;2023-07-13T00:41:11;20.60;99.30
17994;DHT22;9122;48.406;9.984;2023-07-13T00:43:56;20.60;99.10
17994;DHT22;9122;48.406;9.984;2023-07-13T00:46:41;20.50;98.70
17994;DHT22;9122;48.406;9.984;2023-07-13T00:49:27;20.60;98.40
17994;DHT22;9122;48.406;9.984;2023-07-13T00:52:12;20.50;98.10
17994;DHT22;9122;48.406;9.984;2023-07-13T00:54:57;20.50;97.90
17994;DHT22;9122;48.406;9.984;2023-07-13T00:57:42;20.50;97.80
17994;DHT22;9122;48.406;9.984;2023-07-13T01:00:29;20.50;97.90
17994;DHT22;9122;48.406;9.984;2023-07-13T01:03:13;20.50;98.00
17994;DHT22;9122;48.406;9.984;2023-07-13T01:05:58;20.40;97.90
17994;DHT22;9122;48.406;9.984;2023-07-13T01:08:45;20.40;98.10
17994;DHT22;9122;48.406;9.984;2023-07-13T01:11:29;20.40;98.00
17994;DHT22;9122;48.406;9.984;2023-07-13T01:14:14;20.40;98.00
17994;DHT22;9122;48.406;9.984;2023-07-13T01:16:58;20.40;97.70
17994;DHT22;9122;48.406;9.984;2023-07-13T01:19:45;20.40;97.40
17994;DHT22;9122;48.406;9.984;2023-07-13T01:22:29;20.30;97.20
17994;DHT22;9122;48.406;9.984;2023-07-13T01:25:16;20.30;97.10
17994;DHT22;9122;48.406;9.984;2023-07-13T01:28:02;20.30;97.30
17994;DHT22;9122;48.406;9.984;2023-07-13T01:30:47;20.30;97.40
17994;DHT22;9122;48.406;9.984;2023-07-13T01:33:32;20.30;97.60
17994;DHT22;9122;48.406;9.984;2023-07-13T01:36:17;20.30;97.40
17994;DHT22;9122;48.406;9.984;2023-07-13T01:39:03;20.30;97.40
17994;DHT22;9122;48.406;9.984;2023-07-13T01:41:47;20.20;97.40
17994;DHT22;9122;48.406;9.984;2023-07-13T01:44:32;20.20;97.40
17994;DHT22;9122;48.406;9.984;2023-07-13T01:47:16;20.20;97.40
17994;DHT22;9122;48.406;9.984;2023-07-13T01:50:01;20.20;97.80
17994;DHT22;9122;48.406;9.984;2023-07-13T01:52:45;20.20;97.50
17994;DHT22;9122;48.406;9.984;2023-07-13T01:55:31;20.20;97.50
17994;DHT22;9122;48.406;9.984;2023-07-13T01:58:16;20.20;97.60
17994;DHT22;9122;48.406;9.984;2023-07-13T02:01:00;20.10;97.70
17994;DHT22;9122;48.406;9.984;2023-07-13T02:03:45;20.10;97.70
17994;DHT22;9122;48.406;9.984;2023-07-13T02:06:30;20.10;97.60
17994;DHT22;9122;48.406;9.984;2023-07-13T02:09:15;20.10;97.40
17994;DHT22;9122;48.406;9.984;2023-07-13T02:12:00;20.10;97.00
17994;DHT22;9122;48.406;9.984;2023-07-13T02:14:44;20.00;96.70
17994;DHT22;9122;48.406;9.984;2023-07-13T02:17:29;20.00;96.90
17994;DHT22;9122;48.406;9.984;2023-07-13T02:20:14;20.00;97.00
17994;DHT22;9122;48.406;9.984;2023-07-13T02:22:59;20.00;97.00
17994;DHT22;9122;48.406;9.984;2023-07-13T02:25:43;20.00;96.90
17994;DHT22;9122;48.406;9.984;2023-07-13T02:28:28;20.00;96.90
17994;DHT22;9122;48.406;9.984;2023-07-13T02:31:15;19.90;96.90
17994;DHT22;9122;48.406;9.984;2023-07-13T02:34:00;19.90;96.90
17994;DHT22;9122;48.406;9.984;2023-07-13T02:36:44;19.90;96.90
17994;DHT22;9122;48.406;9.984;2023-07-13T02:39:29;19.80;96.90
17994;DHT22;9122;48.406;9.984;2023-07-13T02:42:13;19.80;97.10
17994;DHT22;9122;48.406;9.984;2023-07-13T02:44:58;19.70;97.20
17994;DHT22;9122;48.406;9.984;2023-07-13T02:47:43;19.70;97.10
17994;DHT22;9122;48.406;9.984;2023-07-13T02:50:27;19.70;97.20
17994;DHT22;9122;48.406;9.984;2023-07-13T02:53:12;19.70;97.10
17994;DHT22;9122;48.406;9.984;2023-07-13T02:55:56;19.70;97.00
17994;DHT22;9122;48.406;9.984;2023-07-13T02:58:41;19.70;97.00
17994;DHT22;9122;48.406;9.984;2023-07-13T03:01:25;19.70;97.10
17994;DHT22;9122;48.406;9.984;2023-07-13T03:04:10;19.70;96.80
17994;DHT22;9122;48.406;9.984;2023-07-13T03:06:56;19.60;96.30
17994;DHT22;9122;48.406;9.984;2023-07-13T03:09:42;19.60;96.10
17994;DHT22;9122;48.406;9.984;2023-07-13T03:12:26;19.60;95.80
17994;DHT22;9122;48.406;9.984;2023-07-13T03:15:10;19.60;95.50
17994;DHT22;9122;48.406;9.984;2023-07-13T03:17:55;19.50;95.30
17994;DHT22;9122;48.406;9.984;2023-07-13T03:20:39;19.50;94.90
17994;DHT22;9122;48.406;9.984;2023-07-13T03:23:23;19.50;94.50
17994;DHT22;9122;48.406;9.984;2023-07-13T03:26:13;19.40;94.40
17994;DHT22;9122;48.406;9.984;2023-07-13T03:28:57;19.40;94.60
17994;DHT22;9122;48.406;9.984;2023-07-13T03:31:42;19.40;95.00
17994;DHT22;9122;48.406;9.984;2023-07-13T03:34:27;19.40;95.50
17994;DHT22;9122;48.406;9.984;2023-07-13T03:37:11;19.40;95.90
17994;DHT22;9122;48.406;9.984;2023-07-13T03:39:55;19.40;96.10
17994;DHT22;9122;48.406;9.984;2023-07-13T03:42:40;19.30;96.20
17994;DHT22;9122;48.406;9.984;2023-07-13T03:45:24;19.30;96.30
17994;DHT22;9122;48.406;9.984;2023-07-13T03:48:08;19.30;96.20
17994;DHT22;9122;48.406;9.984;2023-07-13T03:50:52;19.20;96.30
17994;DHT22;9122;48.406;9.984;2023-07-13T03:53:41;19.20;96.20
17994;DHT22;9122;48.406;9.984;2023-07-13T03:56:25;19.10;96.10
17994;DHT22;9122;48.406;9.984;2023-07-13T03:59:10;19.10;96.30
17994;DHT22;9122;48.406;9.984;2023-07-13T04:01:54;19.10;96.40
17994;DHT22;9122;48.406;9.984;2023-07-13T04:04:39;19.10;96.50
17994;DHT22;9122;48.406;9.984;2023-07-13T04:07:25;19.10;96.60
17994;DHT22;9122;48.406;9.984;2023-07-13T04:10:09;19.10;96.70
17994;DHT22;9122;48.406;9.984;2023-07-13T04:12:53;19.10;96.70
17994;DHT22;9122;48.406;9.984;2023-07-13T04:15:39;19.10;96.70
17994;DHT22;9122;48.406;9.984;2023-07-13T04:18:24;19.00;96.70
17994;DHT22;9122;48.406;9.984;2023-07-13T04:21:08;19.00;96.50
17994;DHT22;9122;48.406;9.984;2023-07-13T04:23:53;19.00;96.40
17994;DHT22;9122;48.406;9.984;2023-07-13T04:26:38;19.00;96.30
17994;DHT22;9122;48.406;9.984;2023-07-13T04:29:23;19.00;96.50
17994;DHT22;9122;48.406;9.984;2023-07-13T04:32:08;19.00;96.50
17994;DHT22;9122;48.406;9.984;2023-07-13T04:34:52;19.00;96.20
17994;DHT22;9122;48.406;9.984;2023-07-13T04:37:37;19.00;96.00
17994;DHT22;9122;48.406;9.984;2023-07-13T04:40:21;19.00;95.90
17994;DHT22;9122;48.406;9.984;2023-07-13T04:43:05;19.00;95.90
17994;DHT22;9122;48.406;9.984;2023-07-13T04:45:50;19.00;96.00
17994;DHT22;9122;48.406;9.984;2023-07-13T04:48:35;19.00;96.20
17994;DHT22;9122;48.406;9.984;2023-07-13T04:51:20;19.00;96.30
17994;DHT22;9122;48.406;9.984;2023-07-13T04:54:04;19.00;96.40
17994;DHT22;9122;48.406;9.984;2023-07-13T04:56:49;19.00;96.50
17994;DHT22;9122;48.406;9.984;2023-07-13T04:59:33;19.00;96.30
17994;DHT22;9122;48.406;9.984;2023-07-13T05:02:18;19.00;96.40
17994;DHT22;9122;48.406;9.984;2023-07-13T05:05:05;19.00;96.50
17994;DHT22;9122;48.406;9.984;2023-07-13T05:07:49;19.00;96.50
17994;DHT22;9122;48.406;9.984;2023-07-13T05:10:34;19.00;96.50
17994;DHT22;9122;48.406;9.984;2023-07-13T05:13:19;19.00;96.50
17994;DHT22;9122;48.406;9.984;2023-07-13T05:16:05;19.00;96.70
17994;DHT22;9122;48.406;9.984;2023-07-13T05:18:53;19.00;96.30
17994;DHT22;9122;48.406;9.984;2023-07-13T05:21:37;19.00;96.20
17994;DHT22;9122;48.406;9.984;2023-07-13T05:24:22;19.10;96.20
17994;DHT22;9122;48.406;9.984;2023-07-13T05:27:07;19.10;96.00
17994;DHT22;9122;48.406;9.984;2023-07-13T05:29:51;19.10;95.70
17994;DHT22;9122;48.406;9.984;2023-07-13T05:32:36;19.10;95.50
17994;DHT22;9122;48.406;9.984;2023-07-13T05:35:20;19.10;95.60
17994;DHT22;9122;48.406;9.984;2023-07-13T05:38:04;19.10;95.70
17994;DHT22;9122;48.406;9.984;2023-07-13T05:40:49;19.10;95.70
17994;DHT22;9122;48.406;9.984;2023-07-13T05:43:34;19.10;95.80
17994;DHT22;9122;48.406;9.984;2023-07-13T05:46:18;19.20;95.80
17994;DHT22;9122;48.406;9.984;2023-07-13T05:49:02;19.20;95.90
17994;DHT22;9122;48.406;9.984;2023-07-13T05:51:47;19.20;95.90
17994;DHT22;9122;48.406;9.984;2023-07-13T05:54:32;19.20;95.90
17994;DHT22;9122;48.406;9.984;2023-07-13T05:57:16;19.20;95.70
17994;DHT22;9122;48.406;9.984;2023-07-13T06:00:01;19.20;95.50
17994;DHT22;9122;48.406;9.984;2023-07-13T06:02:45;19.30;95.50
17994;DHT22;9122;48.406;9.984;2023-07-13T06:05:30;19.30;95.40
17994;DHT22;9122;48.406;9.984;2023-07-13T06:08:14;19.30;95.30
17994;DHT22;9122;48.406;9.984;2023-07-13T06:11:04;19.40;95.40
17994;DHT22;9122;48.406;9.984;2023-07-13T06:13:50;19.40;95.40
17994;DHT22;9122;48.406;9.984;2023-07-13T06:16:34;19.40;94.90
17994;DHT22;9122;48.406;9.984;2023-07-13T06:19:19;19.30;94.80
17994;DHT22;9122;48.406;9.984;2023-07-13T06:22:04;19.40;94.90
17994;DHT22;9122;48.406;9.984;2023-07-13T06:24:48;19.40;94.80
17994;DHT22;9122;48.406;9.984;2023-07-13T06:27:33;19.40;94.60
17994;DHT22;9122;48.406;9.984;2023-07-13T06:30:17;19.50;94.60
17994;DHT22;9122;48.406;9.984;2023-07-13T06:33:02;19.50;94.40
17994;DHT22;9122;48.406;9.984;2023-07-13T06:35:47;19.50;94.50
17994;DHT22;9122;48.406;9.984;2023-07-13T06:38:31;19.60;94.70
17994;DHT22;9122;48.406;9.984;2023-07-13T06:41:16;19.60;94.80
17994;DHT22;9122;48.406;9.984;2023-07-13T06:44:01;19.60;94.80
17994;DHT22;9122;48.406;9.984;2023-07-13T06:46:45;19.60;94.60
17994;DHT22;9122;48.406;9.984;2023-07-13T06:49:30;19.70;94.50
17994;DHT22;9122;48.406;9.984;2023-07-13T06:52:14;19.70;94.70
17994;DHT22;9122;48.406;9.984;2023-07-13T06:54:58;19.80;94.30
17994;DHT22;9122;48.406;9.984;2023-07-13T06:57:43;19.90;94.20
17994;DHT22;9122;48.406;9.984;2023-07-13T07:00:27;20.00;93.90
17994;DHT22;9122;48.406;9.984;2023-07-13T07:03:12;20.00;93.40
17994;DHT22;9122;48.406;9.984;2023-07-13T07:06:12;20.00;93.20
17994;DHT22;9122;48.406;9.984;2023-07-13T07:08:57;20.10;93.00
17994;DHT22;9122;48.406;9.984;2023-07-13T07:11:41;20.10;92.10
17994;DHT22;9122;48.406;9.984;2023-07-13T07:14:26;20.10;91.80
17994;DHT22;9122;48.406;9.984;2023-07-13T07:17:10;20.20;91.70
17994;DHT22;9122;48.406;9.984;2023-07-13T07:19:54;20.20;91.20
17994;DHT22;9122;48.406;9.984;2023-07-13T07:22:39;20.30;90.80
17994;DHT22;9122;48.406;9.984;2023-07-13T07:25:23;20.20;90.10
17994;DHT22;9122;48.406;9.984;2023-07-13T07:28:16;20.30;89.70
17994;DHT22;9122;48.406;9.984;2023-07-13T07:31:04;20.30;90.10
17994;DHT22;9122;48.406;9.984;2023-07-13T07:33:50;20.30;89.30
17994;DHT22;9122;48.406;9.984;2023-07-13T07:36:34;20.40;90.10
17994;DHT22;9122;48.406;9.984;2023-07-13T07:39:18;20.40;89.30
17994;DHT22;9122;48.406;9.984;2023-07-13T07:42:02;20.50;89.60
17994;DHT22;9122;48.406;9.984;2023-07-13T07:44:47;20.50;88.90
17994;DHT22;9122;48.406;9.984;2023-07-13T07:47:31;20.60;89.30
17994;DHT22;9122;48.406;9.984;2023-07-13T07:50:16;20.70;89.50
17994;DHT22;9122;48.406;9.984;2023-07-13T07:53:01;20.80;89.50
17994;DHT22;9122;48.406;9.984;2023-07-13T07:55:46;20.90;89.40
17994;DHT22;9122;48.406;9.984;2023-07-13T07:58:31;20.90;89.00
17994;DHT22;9122;48.406;9.984;2023-07-13T08:01:15;21.00;88.80
17994;DHT22;9122;48.406;9.984;2023-07-13T08:04:00;21.10;89.10
17994;DHT22;9122;48.406;9.984;2023-07-13T08:06:44;21.10;89.20
17994;DHT22;9122;48.406;9.984;2023-07-13T08:09:31;21.20;89.20
17994;DHT22;9122;48.406;9.984;2023-07-13T08:12:16;21.20;88.20
17994;DHT22;9122;48.406;9.984;2023-07-13T08:15:01;21.20;87.60
17994;DHT22;9122;48.406;9.984;2023-07-13T08:17:48;21.30;88.20
17994;DHT22;9122;48.406;9.984;2023-07-13T08:20:36;21.30;88.60
17994;DHT22;9122;48.406;9.984;2023-07-13T08:23:23;21.40;88.30
17994;DHT22;9122;48.406;9.984;2023-07-13T08:26:09;21.40;87.60
17994;DHT22;9122;48.406;9.984;2023-07-13T08:28:53;21.50;86.50
17994;DHT22;9122;48.406;9.984;2023-07-13T08:31:38;21.50;86.20
17994;DHT22;9122;48.406;9.984;2023-07-13T08:34:23;21.50;86.70
17994;DHT22;9122;48.406;9.984;2023-07-13T08:37:07;21.50;86.60
17994;DHT22;9122;48.406;9.984;2023-07-13T08:39:51;21.50;86.20
17994;DHT22;9122;48.406;9.984;2023-07-13T08:42:45;21.50;85.70
17994;DHT22;9122;48.406;9.984;2023-07-13T08:45:47;21.50;86.00
17994;DHT22;9122;48.406;9.984;2023-07-13T08:48:53;21.50;86.60
17994;DHT22;9122;48.406;9.984;2023-07-13T08:51:48;21.50;86.40
17994;DHT22;9122;48.406;9.984;2023-07-13T08:54:39;21.50;85.30
17994;DHT22;9122;48.406;9.984;2023-07-13T08:57:31;21.50;84.90
17994;DHT22;9122;48.406;9.984;2023-07-13T09:00:17;21.60;85.20
17994;DHT22;9122;48.406;9.984;2023-07-13T09:03:02;21.60;84.60
17994;DHT22;9122;48.406;9.984;2023-07-13T09:05:52;21.60;84.30
17994;DHT22;9122;48.406;9.984;2023-07-13T09:08:58;21.70;83.80
17994;DHT22;9122;48.406;9.984;2023-07-13T09:11:50;21.70;82.90
17994;DHT22;9122;48.406;9.984;2023-07-13T09:14:50;21.80;83.50
17994;DHT22;9122;48.406;9.984;2023-07-13T09:17:42;21.90;84.10
17994;DHT22;9122;48.406;9.984;2023-07-13T09:20:42;21.90;82.50
17994;DHT22;9122;48.406;9.984;2023-07-13T09:23:29;22.00;82.80
17994;DHT22;9122;48.406;9.984;2023-07-13T09:26:21;22.00;81.80
17994;DHT22;9122;48.406;9.984;2023-07-13T09:29:23;22.10;81.50
17994;DHT22;9122;48.406;9.984;2023-07-13T09:32:12;22.20;81.10
17994;DHT22;9122;48.406;9.984;2023-07-13T09:34:58;22.20;80.20
17994;DHT22;9122;48.406;9.984;2023-07-13T09:37:45;22.30;79.90
17994;DHT22;9122;48.406;9.984;2023-07-13T09:40:40;22.40;78.00
17994;DHT22;9122;48.406;9.984;2023-07-13T09:43:27;22.60;77.20
17994;DHT22;9122;48.406;9.984;2023-07-13T09:46:21;22.70;76.70
17994;DHT22;9122;48.406;9.984;2023-07-13T09:49:09;22.90;76.00
17994;DHT22;9122;48.406;9.984;2023-07-13T09:52:00;22.90;75.50
17994;DHT22;9122;48.406;9.984;2023-07-13T09:54:48;23.00;75.00
17994;DHT22;9122;48.406;9.984;2023-07-13T09:57:32;23.10;75.20
17994;DHT22;9122;48.406;9.984;2023-07-13T10:00:29;23.10;75.10
17994;DHT22;9122;48.406;9.984;2023-07-13T10:03:18;23.20;73.60
17994;DHT22;9122;48.406;9.984;2023-07-13T10:06:16;23.20;72.90
17994;DHT22;9122;48.406;9.984;2023-07-13T10:09:01;23.30;73.50
17994;DHT22;9122;48.406;9.984;2023-07-13T10:11:46;23.30;73.90
17994;DHT22;9122;48.406;9.984;2023-07-13T10:14:30;23.40;74.20
17994;DHT22;9122;48.406;9.984;2023-07-13T10:17:16;23.50;74.00
17994;DHT22;9122;48.406;9.984;2023-07-13T10:20:04;23.60;73.50
17994;DHT22;9122;48.406;9.984;2023-07-13T10:23:10;23.70;73.00
17994;DHT22;9122;48.406;9.984;2023-07-13T10:25:59;23.80;72.70
17994;DHT22;9122;48.406;9.984;2023-07-13T10:28:45;23.90;72.90
17994;DHT22;9122;48.406;9.984;2023-07-13T10:31:31;23.90;72.30
17994;DHT22;9122;48.406;9.984;2023-07-13T10:34:16;24.00;71.30
17994;DHT22;9122;48.406;9.984;2023-07-13T10:37:01;24.10;70.20
17994;DHT22;9122;48.406;9.984;2023-07-13T10:39:46;24.10;68.50
17994;DHT22;9122;48.406;9.984;2023-07-13T10:42:38;24.20;68.70
17994;DHT22;9122;48.406;9.984;2023-07-13T10:45:25;24.30;69.20
17994;DHT22;9122;48.406;9.984;2023-07-13T10:48:14;24.30;68.30
17994;DHT22;9122;48.406;9.984;2023-07-13T10:50:59;24.30;68.70
17994;DHT22;9122;48.406;9.984;2023-07-13T10:53:45;24.30;69.20
17994;DHT22;9122;48.406;9.984;2023-07-13T10:56:30;24.20;70.00
17994;DHT22;9122;48.406;9.984;2023-07-13T10:59:26;24.30;70.40
17994;DHT22;9122;48.406;9.984;2023-07-13T11:02:27;24.30;70.20
17994;DHT22;9122;48.406;9.984;2023-07-13T11:08:33;24.40;70.60
17994;DHT22;9122;48.406;9.984;2023-07-13T11:14:35;24.60;68.10
17994;DHT22;9122;48.406;9.984;2023-07-13T11:25:56;24.80;67.30
17994;DHT22;9122;48.406;9.984;2023-07-13T11:28:42;24.80;66.80
17994;DHT22;9122;48.406;9.984;2023-07-13T11:31:33;24.80;65.90
17994;DHT22;9122;48.406;9.984;2023-07-13T11:34:28;24.90;66.30
17994;DHT22;9122;48.406;9.984;2023-07-13T11:37:15;24.90;66.40
17994;DHT22;9122;48.406;9.984;2023-07-13T11:40:01;24.90;65.50
17994;DHT22;9122;48.406;9.984;2023-07-13T11:42:45;24.90;64.90
17994;DHT22;9122;48.406;9.984;2023-07-13T11:45:30;24.90;66.30
17994;DHT22;9122;48.406;9.984;2023-07-13T11:48:27;25.00;66.70
17994;DHT22;9122;48.406;9.984;2023-07-13T11:51:23;25.00;67.50
17994;DHT22;9122;48.406;9.984;2023-07-13T11:54:31;25.00;66.30
17994;DHT22;9122;48.406;9.984;2023-07-13T12:00:17;25.10;66.10
17994;DHT22;9122;48.406;9.984;2023-07-13T12:03:03;25.10;64.00
17994;DHT22;9122;48.406;9.984;2023-07-13T12:06:28;25.10;63.60
17994;DHT22;9122;48.406;9.984;2023-07-13T12:09:14;25.20;63.20
17994;DHT22;9122;48.406;9.984;2023-07-13T12:12:03;25.20;60.70
17994;DHT22;9122;48.406;9.984;2023-07-13T12:14:53;25.20;60.80
17994;DHT22;9122;48.406;9.984;2023-07-13T12:17:39;25.20;62.10
17994;DHT22;9122;48.406;9.984;2023-07-13T12:20:27;25.20;61.80
17994;DHT22;9122;48.406;9.984;2023-07-13T12:23:48;25.20;61.10
17994;DHT22;9122;48.406;9.984;2023-07-13T12:26:33;25.20;61.00
17994;DHT22;9122;48.406;9.984;2023-07-13T12:29:18;25.20;60.60
17994;DHT22;9122;48.406;9.984;2023-07-13T12:32:08;25.20;61.10
17994;DHT22;9122;48.406;9.984;2023-07-13T12:34:55;25.30;61.40
17994;DHT22;9122;48.406;9.984;2023-07-13T12:37:45;25.30;61.60
17994;DHT22;9122;48.406;9.984;2023-07-13T12:40:34;25.30;61.70
17994;DHT22;9122;48.406;9.984;2023-07-13T12:43:22;25.40;61.80
17994;DHT22;9122;48.406;9.984;2023-07-13T12:46:23;25.40;60.60
17994;DHT22;9122;48.406;9.984;2023-07-13T12:49:08;25.40;60.50
17994;DHT22;9122;48.406;9.984;2023-07-13T12:52:00;25.50;59.30
17994;DHT22;9122;48.406;9.984;2023-07-13T12:55:02;25.50;58.60
17994;DHT22;9122;48.406;9.984;2023-07-13T12:57:49;25.50;58.00
17994;DHT22;9122;48.406;9.984;2023-07-13T13:00:36;25.60;59.70
17994;DHT22;9122;48.406;9.984;2023-07-13T13:03:34;25.60;59.70
17994;DHT22;9122;48.406;9.984;2023-07-13T13:06:26;25.60;59.30
17994;DHT22;9122;48.406;9.984;2023-07-13T13:09:16;25.60;59.10
17994;DHT22;9122;48.406;9.984;2023-07-13T13:12:00;25.60;59.10
17994;DHT22;9122;48.406;9.984;2023-07-13T13:14:45;25.60;59.70
17994;DHT22;9122;48.406;9.984;2023-07-13T13:17:30;25.60;60.20
17994;DHT22;9122;48.406;9.984;2023-07-13T13:20:20;25.60;59.30
17994;DHT22;9122;48.406;9.984;2023-07-13T13:23:11;25.60;59.10
17994;DHT22;9122;48.406;9.984;2023-07-13T13:25:56;25.70;59.30
17994;DHT22;9122;48.406;9.984;2023-07-13T13:28:42;25.70;59.00
17994;DHT22;9122;48.406;9.984;2023-07-13T13:31:28;25.70;59.00
17994;DHT22;9122;48.406;9.984;2023-07-13T13:34:15;25.60;59.00
17994;DHT22;9122;48.406;9.984;2023-07-13T13:37:00;25.70;59.80
17994;DHT22;9122;48.406;9.984;2023-07-13T13:39:45;25.70;59.60
17994;DHT22;9122;48.406;9.984;2023-07-13T13:42:29;25.70;59.60
17994;DHT22;9122;48.406;9.984;2023-07-13T13:45:14;25.70;59.60
17994;DHT22;9122;48.406;9.984;2023-07-13T13:47:59;25.70;59.40
17994;DHT22;9122;48.406;9.984;2023-07-13T13:50:44;25.60;59.50
17994;DHT22;9122;48.406;9.984;2023-07-13T13:53:29;25.70;59.20
17994;DHT22;9122;48.406;9.984;2023-07-13T13:56:18;25.70;58.50
17994;DHT22;9122;48.406;9.984;2023-07-13T13:59:02;25.70;58.50
17994;DHT22;9122;48.406;9.984;2023-07-13T14:01:49;25.70;57.20
17994;DHT22;9122;48.406;9.984;2023-07-13T14:04:33;25.60;57.60
17994;DHT22;9122;48.406;9.984;2023-07-13T14:07:18;25.60;58.30
17994;DHT22;9122;48.406;9.984;2023-07-13T14:10:16;25.60;58.80
17994;DHT22;9122;48.406;9.984;2023-07-13T14:13:02;25.60;59.30
17994;DHT22;9122;48.406;9.984;2023-07-13T14:15:47;25.60;59.20
17994;DHT22;9122;48.406;9.984;2023-07-13T14:18:32;25.60;59.30
17994;DHT22;9122;48.406;9.984;2023-07-13T14:21:22;25.60;59.70
17994;DHT22;9122;48.406;9.984;2023-07-13T14:24:07;25.60;60.20
17994;DHT22;9122;48.406;9.984;2023-07-13T14:26:51;25.60;61.00
17994;DHT22;9122;48.406;9.984;2023-07-13T14:29:36;25.50;61.40
17994;DHT22;9122;48.406;9.984;2023-07-13T14:32:20;25.50;60.30
17994;DHT22;9122;48.406;9.984;2023-07-13T14:35:05;25.50;59.90
17994;DHT22;9122;48.406;9.984;2023-07-13T14:37:50;25.50;59.80
17994;DHT22;9122;48.406;9.984;2023-07-13T14:40:34;25.40;59.40
17994;DHT22;9122;48.406;9.984;2023-07-13T14:43:19;25.40;59.60
17994;DHT22;9122;48.406;9.984;2023-07-13T14:46:03;25.40;60.30
17994;DHT22;9122;48.406;9.984;2023-07-13T14:48:48;25.40;60.20
17994;DHT22;9122;48.406;9.984;2023-07-13T14:51:33;25.30;59.80
17994;DHT22;9122;48.406;9.984;2023-07-13T14:54:19;25.30;59.60
17994;DHT22;9122;48.406;9.984;2023-07-13T14:57:03;25.30;59.90
17994;DHT22;9122;48.406;9.984;2023-07-13T14:59:48;25.30;59.50
17994;DHT22;9122;48.406;9.984;2023-07-13T15:02:34;25.20;59.60
17994;DHT22;9122;48.406;9.984;2023-07-13T15:05:24;25.30;60.00
17994;DHT22;9122;48.406;9.984;2023-07-13T15:08:09;25.30;59.70
17994;DHT22;9122;48.406;9.984;2023-07-13T15:10:55;25.30;59.20
17994;DHT22;9122;48.406;9.984;2023-07-13T15:13:44;25.40;59.50
17994;DHT22;9122;48.406;9.984;2023-07-13T15:16:32;25.40;59.60
17994;DHT22;9122;48.406;9.984;2023-07-13T15:19:19;25.40;59.70
17994;DHT22;9122;48.406;9.984;2023-07-13T15:22:04;25.40;58.90
17994;DHT22;9122;48.406;9.984;2023-07-13T15:24:49;25.40;58.00
17994;DHT22;9122;48.406;9.984;2023-07-13T15:27:34;25.40;58.70
17994;DHT22;9122;48.406;9.984;2023-07-13T15:30:21;25.40;58.70
17994;DHT22;9122;48.406;9.984;2023-07-13T15:36:06;25.40;59.70
17994;DHT22;9122;48.406;9.984;2023-07-13T15:38:51;25.40;59.80
17994;DHT22;9122;48.406;9.984;2023-07-13T15:41:37;25.40;59.50
17994;DHT22;9122;48.406;9.984;2023-07-13T15:47:11;25.40;58.90
17994;DHT22;9122;48.406;9.984;2023-07-13T15:49:56;25.50;56.60
17994;DHT22;9122;48.406;9.984;2023-07-13T15:52:44;25.40;55.20
17994;DHT22;9122;48.406;9.984;2023-07-13T15:55:29;25.50;55.10
17994;DHT22;9122;48.406;9.984;2023-07-13T15:58:14;25.50;52.80
17994;DHT22;9122;48.406;9.984;2023-07-13T16:00:59;25.50;52.60
17994;DHT22;9122;48.406;9.984;2023-07-13T16:03:43;25.50;53.60
17994;DHT22;9122;48.406;9.984;2023-07-13T16:06:36;25.50;53.70
17994;DHT22;9122;48.406;9.984;2023-07-13T16:09:23;25.50;52.90
17994;DHT22;9122;48.406;9.984;2023-07-13T16:12:12;25.50;52.80
17994;DHT22;9122;48.406;9.984;2023-07-13T16:14:56;25.50;52.20
17994;DHT22;9122;48.406;9.984;2023-07-13T16:17:41;25.50;52.30
17994;DHT22;9122;48.406;9.984;2023-07-13T16:20:26;25.50;52.70
17994;DHT22;9122;48.406;9.984;2023-07-13T16:23:12;25.50;53.30
17994;DHT22;9122;48.406;9.984;2023-07-13T16:25:57;25.50;53.50
17994;DHT22;9122;48.406;9.984;2023-07-13T16:28:42;25.50;52.80
17994;DHT22;9122;48.406;9.984;2023-07-13T16:31:31;25.50;53.70
17994;DHT22;9122;48.406;9.984;2023-07-13T16:34:18;25.50;54.70
17994;DHT22;9122;48.406;9.984;2023-07-13T16:37:17;25.50;55.40
17994;DHT22;9122;48.406;9.984;2023-07-13T16:40:02;25.60;54.50
17994;DHT22;9122;48.406;9.984;2023-07-13T16:42:56;25.50;54.30
17994;DHT22;9122;48.406;9.984;2023-07-13T16:45:41;25.60;55.20
17994;DHT22;9122;48.406;9.984;2023-07-13T16:48:28;25.60;54.30
17994;DHT22;9122;48.406;9.984;2023-07-13T16:51:14;25.60;53.90
17994;DHT22;9122;48.406;9.984;2023-07-13T16:53:59;25.60;53.70
17994;DHT22;9122;48.406;9.984;2023-07-13T16:56:45;25.60;53.20
17994;DHT22;9122;48.406;9.984;2023-07-13T16:59:33;25.60;53.00
17994;DHT22;9122;48.406;9.984;2023-07-13T17:05:11;25.60;53.10
17994;DHT22;9122;48.406;9.984;2023-07-13T17:07:59;25.60;52.80
17994;DHT22;9122;48.406;9.984;2023-07-13T17:10:44;25.60;53.10
17994;DHT22;9122;48.406;9.984;2023-07-13T17:13:29;25.60;53.10
17994;DHT22;9122;48.406;9.984;2023-07-13T17:16:15;25.50;53.00
17994;DHT22;9122;48.406;9.984;2023-07-13T17:19:00;25.50;53.40
17994;DHT22;9122;48.406;9.984;2023-07-13T17:21:46;25.50;53.50
17994;DHT22;9122;48.406;9.984;2023-07-13T17:24:33;25.50;53.60
17994;DHT22;9122;48.406;9.984;2023-07-13T17:27:18;25.50;54.00
17994;DHT22;9122;48.406;9.984;2023-07-13T17:30:03;25.50;54.10
17994;DHT22;9122;48.406;9.984;2023-07-13T17:32:49;25.50;54.00
17994;DHT22;9122;48.406;9.984;2023-07-13T17:35:36;25.50;54.00
17994;DHT22;9122;48.406;9.984;2023-07-13T17:38:21;25.50;53.60
17994;DHT22;9122;48.406;9.984;2023-07-13T17:41:09;25.50;53.40
17994;DHT22;9122;48.406;9.984;2023-07-13T17:43:55;25.40;53.50
17994;DHT22;9122;48.406;9.984;2023-07-13T17:46:40;25.40;53.80
17994;DHT22;9122;48.406;9.984;2023-07-13T17:49:25;25.40;53.70
17994;DHT22;9122;48.406;9.984;2023-07-13T17:52:15;25.40;54.00
17994;DHT22;9122;48.406;9.984;2023-07-13T17:54:59;25.40;53.60
17994;DHT22;9122;48.406;9.984;2023-07-13T17:57:47;25.30;53.10
17994;DHT22;9122;48.406;9.984;2023-07-13T18:00:37;25.40;53.20
17994;DHT22;9122;48.406;9.984;2023-07-13T18:03:25;25.30;53.10
17994;DHT22;9122;48.406;9.984;2023-07-13T18:06:27;25.30;53.10
17994;DHT22;9122;48.406;9.984;2023-07-13T18:09:19;25.30;53.50
17994;DHT22;9122;48.406;9.984;2023-07-13T18:12:04;25.30;53.00
17994;DHT22;9122;48.406;9.984;2023-07-13T18:14:49;25.20;52.60
17994;DHT22;9122;48.406;9.984;2023-07-13T18:17:33;25.20;52.30